createdAt,value
2023-03-07T00:02:28.007Z,101353.53
2023-03-07T00:04:58.564Z,101359.38
2023-03-07T00:07:29.013Z,101361.41
2023-03-07T00:10:01.808Z,101364.94
2023-03-07T00:12:32.141Z,101364.94
2023-03-07T00:15:02.719Z,101363.75
2023-03-07T00:17:33.093Z,101361.34
2023-03-07T00:20:03.351Z,101372.41
2023-03-07T00:22:33.572Z,101373.69
2023-03-07T00:25:04.283Z,101374.16
2023-03-07T00:27:35.699Z,101370.44
2023-03-07T00:30:07.305Z,101383.38
2023-03-07T00:32:37.678Z,101375.75
2023-03-07T00:35:08.496Z,101385.31
2023-03-07T00:37:39.056Z,101385.97
2023-03-07T00:40:10.906Z,101393.69
2023-03-07T00:42:41.819Z,101396.00
2023-03-07T00:45:12.356Z,101402.03
2023-03-07T00:47:42.831Z,101400.63
2023-03-07T00:50:13.341Z,101400.28
2023-03-07T00:52:43.559Z,101404.84
2023-03-07T00:55:13.820Z,101408.22
2023-03-07T00:57:44.099Z,101399.91
2023-03-07T01:00:18.066Z,101408.66
2023-03-07T01:02:48.286Z,101405.59
2023-03-07T01:05:18.715Z,101411.63
2023-03-07T01:07:49.101Z,101414.97
2023-03-07T01:10:20.180Z,101420.19
2023-03-07T01:12:50.367Z,101424.53
2023-03-07T01:15:20.788Z,101416.28
2023-03-07T01:17:51.040Z,101421.47
2023-03-07T01:20:21.404Z,101428.34
2023-03-07T01:22:51.785Z,101417.56
2023-03-07T01:25:22.290Z,101417.22
2023-03-07T01:27:59.575Z,101424.25
2023-03-07T01:30:32.191Z,101426.75
2023-03-07T01:33:03.488Z,101427.63
2023-03-07T01:35:38.758Z,101430.94
2023-03-07T01:38:09.476Z,101437.81
2023-03-07T01:40:41.471Z,101435.94
2023-03-07T01:43:24.737Z,101442.84
2023-03-07T01:46:23.230Z,101436.44
2023-03-07T01:48:59.783Z,101440.63
2023-03-07T01:51:32.978Z,101439.41
2023-03-07T01:54:06.611Z,101446.25
2023-03-07T01:56:38.760Z,101444.41
2023-03-07T01:59:10.200Z,101444.22
2023-03-07T02:01:40.779Z,101439.47
2023-03-07T02:04:17.943Z,101447.38
2023-03-07T02:06:48.438Z,101449.88
2023-03-07T02:09:20.788Z,101447.84
2023-03-07T02:11:51.376Z,101448.50
2023-03-07T02:14:21.699Z,101451.81
2023-03-07T02:16:52.906Z,101452.47
2023-03-07T02:19:39.395Z,101448.59
2023-03-07T02:22:12.400Z,101452.94
2023-03-07T02:25:04.226Z,101457.13
2023-03-07T02:27:36.529Z,101457.78
2023-03-07T02:30:08.229Z,101463.84
2023-03-07T02:32:38.661Z,101454.69
2023-03-07T02:35:16.932Z,101459.53
2023-03-07T02:37:51.303Z,101463.06
2023-03-07T02:40:25.380Z,101455.63
2023-03-07T02:42:58.162Z,101447.16
2023-03-07T02:45:28.633Z,101454.03
2023-03-07T02:47:58.982Z,101447.59
2023-03-07T02:50:32.129Z,101450.72
2023-03-07T02:53:02.555Z,101448.69
2023-03-07T02:55:32.923Z,101438.53
2023-03-07T02:58:06.029Z,101444.56
2023-03-07T03:00:36.724Z,101438.81
2023-03-07T03:03:07.425Z,101447.53
2023-03-07T03:05:37.808Z,101434.66
2023-03-07T03:08:08.246Z,101438.03
2023-03-07T03:10:38.758Z,101427.66
2023-03-07T03:13:09.492Z,101430.19
2023-03-07T03:15:41.050Z,101439.75
2023-03-07T03:18:11.330Z,101426.03
2023-03-07T03:20:42.474Z,101425.66
2023-03-07T03:23:13.976Z,101418.19
2023-03-07T03:25:44.364Z,101416.97
2023-03-07T03:28:15.016Z,101419.31
2023-03-07T03:30:45.658Z,101414.56
2023-03-07T03:33:16.363Z,101417.88
2023-03-07T03:35:49.258Z,101407.53
2023-03-07T03:38:19.869Z,101406.50
2023-03-07T03:40:50.287Z,101398.00
2023-03-07T03:43:21.363Z,101408.41
2023-03-07T03:45:58.482Z,101399.91
2023-03-07T03:48:31.444Z,101395.16
2023-03-07T03:51:18.878Z,101393.09
2023-03-07T03:53:49.160Z,101392.69
2023-03-07T03:56:23.018Z,101394.19
2023-03-07T03:58:54.356Z,101384.84
2023-03-07T04:01:27.138Z,101379.03
2023-03-07T04:03:59.931Z,101371.56
2023-03-07T04:06:31.763Z,101369.50
2023-03-07T04:09:02.462Z,101363.69
2023-03-07T04:11:32.772Z,101361.63
2023-03-07T04:14:03.372Z,101350.41
2023-03-07T04:16:33.859Z,101358.13
2023-03-07T04:19:04.406Z,101353.34
2023-03-07T04:21:34.792Z,101347.75
2023-03-07T04:24:05.436Z,101339.25
2023-03-07T04:26:39.773Z,101338.00
2023-03-07T04:29:10.243Z,101331.41
2023-03-07T04:31:46.051Z,101336.41
2023-03-07T04:34:16.624Z,101324.34
2023-03-07T04:36:47.199Z,101323.31
2023-03-07T04:39:17.908Z,101318.53
2023-03-07T04:41:48.930Z,101311.03
2023-03-07T04:44:22.579Z,101296.50
2023-03-07T04:46:53.022Z,101294.44
2023-03-07T04:49:23.501Z,101292.34
2023-03-07T04:51:53.759Z,101286.75
2023-03-07T04:54:24.021Z,101292.78
2023-03-07T04:56:54.486Z,101282.78
2023-03-07T04:59:25.095Z,101279.69
2023-03-07T05:01:55.914Z,101278.63
2023-03-07T05:04:26.670Z,101277.63
2023-03-07T05:06:57.709Z,101277.41
2023-03-07T05:09:28.292Z,101273.66
2023-03-07T05:11:58.679Z,101259.94
2023-03-07T05:14:29.196Z,101263.28
2023-03-07T05:16:59.489Z,101254.94
2023-03-07T05:19:29.732Z,101253.09
2023-03-07T05:22:00.417Z,101255.38
2023-03-07T05:24:30.649Z,101251.63
2023-03-07T05:27:01.645Z,101244.13
2023-03-07T05:29:31.854Z,101233.31
2023-03-07T05:32:03.119Z,101228.50
2023-03-07T05:34:33.401Z,101227.50
2023-03-07T05:37:03.971Z,101220.84
2023-03-07T05:39:35.202Z,101210.84
2023-03-07T05:42:05.728Z,101217.50
2023-03-07T05:44:36.955Z,101206.66
2023-03-07T05:47:08.399Z,101207.94
2023-03-07T05:49:39.340Z,101203.97
2023-03-07T05:52:09.607Z,101202.97
2023-03-07T05:54:39.847Z,101192.53
2023-03-07T05:57:10.376Z,101186.75
2023-03-07T05:59:42.623Z,101176.53
2023-03-07T06:02:12.809Z,101178.81
2023-03-07T06:04:43.491Z,101172.97
2023-03-07T06:07:14.039Z,101165.47
2023-03-07T06:09:44.895Z,101172.34
2023-03-07T06:12:16.067Z,101168.41
2023-03-07T06:14:47.080Z,101160.91
2023-03-07T06:17:17.298Z,101163.19
2023-03-07T06:19:48.291Z,101158.41
2023-03-07T06:22:18.497Z,101152.56
2023-03-07T06:24:49.471Z,101153.16
2023-03-07T06:27:20.416Z,101154.41
2023-03-07T06:29:50.616Z,101146.91
2023-03-07T06:32:20.997Z,101142.09
2023-03-07T06:34:51.432Z,101140.03
2023-03-07T06:37:21.770Z,101137.94
2023-03-07T06:39:52.378Z,101129.38
2023-03-07T06:42:23.220Z,101130.00
2023-03-07T06:44:53.499Z,101124.16
2023-03-07T06:47:23.846Z,101123.75
2023-03-07T06:49:54.840Z,101107.09
2023-03-07T06:52:25.198Z,101112.06
2023-03-07T06:54:55.864Z,101100.81
2023-03-07T06:57:26.598Z,101114.53
2023-03-07T06:59:56.961Z,101098.91
2023-03-07T07:02:29.271Z,101094.94
2023-03-07T07:05:01.265Z,101095.31
2023-03-07T07:07:33.176Z,101089.47
2023-03-07T07:10:03.556Z,101085.31
2023-03-07T07:12:33.906Z,101084.88
2023-03-07T07:15:06.509Z,101083.38
2023-03-07T07:17:37.245Z,101076.47
2023-03-07T07:20:08.351Z,101077.69
2023-03-07T07:22:38.693Z,101069.75
2023-03-07T07:25:09.441Z,101067.66
2023-03-07T07:27:40.156Z,101065.13
2023-03-07T07:30:11.043Z,101055.50
2023-03-07T07:32:41.589Z,101049.66
2023-03-07T07:35:12.611Z,101053.59
2023-03-07T07:37:43.365Z,101046.66
2023-03-07T07:40:15.086Z,101033.72
2023-03-07T07:42:46.857Z,101034.09
2023-03-07T07:45:24.427Z,101036.16
2023-03-07T07:47:55.476Z,101023.19
2023-03-07T07:50:26.310Z,101019.00
2023-03-07T07:52:56.586Z,101013.13
2023-03-07T07:55:27.773Z,101018.09
2023-03-07T07:57:58.766Z,101022.25
2023-03-07T08:00:29.163Z,101013.47
2023-03-07T08:03:00.445Z,101020.06
2023-03-07T08:05:30.650Z,101015.88
2023-03-07T08:08:00.977Z,101017.09
2023-03-07T08:10:31.341Z,101016.66
2023-03-07T08:13:01.496Z,101016.19
2023-03-07T08:15:31.735Z,101026.59
2023-03-07T08:18:02.304Z,101018.00
2023-03-07T08:20:32.886Z,101016.53
2023-03-07T08:23:03.551Z,101014.41
2023-03-07T08:25:33.943Z,101019.38
2023-03-07T08:28:06.821Z,101018.94
2023-03-07T08:30:38.514Z,101011.41
2023-03-07T08:33:08.936Z,101027.22
2023-03-07T08:35:42.291Z,101022.38
2023-03-07T08:38:13.163Z,101022.53
2023-03-07T08:40:43.445Z,101025.03
2023-03-07T08:43:13.755Z,101018.34
2023-03-07T08:45:44.159Z,101019.53
2023-03-07T08:48:14.483Z,101020.13
2023-03-07T08:50:44.698Z,101019.88
2023-03-07T08:53:18.124Z,101022.22
2023-03-07T08:55:48.560Z,101020.06
2023-03-07T08:58:19.077Z,101016.06
2023-03-07T09:00:49.452Z,101024.81
2023-03-07T09:03:19.588Z,101027.09
2023-03-07T09:05:49.729Z,101031.22
2023-03-07T09:08:20.286Z,101040.00
2023-03-07T09:10:50.496Z,101037.63
2023-03-07T09:13:21.674Z,101039.28
2023-03-07T09:15:51.963Z,101042.78
2023-03-07T09:18:24.402Z,101047.13
2023-03-07T09:20:54.689Z,101040.19
2023-03-07T09:23:24.854Z,101039.28
2023-03-07T09:25:55.102Z,101050.81
2023-03-07T09:28:25.297Z,101045.00
2023-03-07T09:30:55.737Z,101052.53
2023-03-07T09:33:26.892Z,101058.41
2023-03-07T09:35:57.310Z,101018.53
2023-03-07T09:38:28.202Z,101045.88
2023-03-07T09:41:03.571Z,101057.19
2023-03-07T09:43:43.715Z,101053.44
2023-03-07T09:46:47.877Z,101049.47
2023-03-07T09:49:21.287Z,101054.88
2023-03-07T09:51:53.709Z,101050.53
2023-03-07T09:54:26.294Z,101054.88
2023-03-07T09:57:00.359Z,101059.69
2023-03-07T09:59:40.468Z,101058.66
2023-03-07T10:02:20.197Z,101063.47
2023-03-07T10:04:54.380Z,101067.25
2023-03-07T10:07:26.340Z,101063.47
2023-03-07T10:10:02.382Z,101062.03
2023-03-07T10:12:48.525Z,101060.16
2023-03-07T10:15:30.013Z,101064.75
2023-03-07T10:18:18.577Z,101056.84
2023-03-07T10:21:04.245Z,101071.44
2023-03-07T10:23:34.630Z,101072.34
2023-03-07T10:26:17.915Z,101079.66
2023-03-07T10:28:49.831Z,101090.72
2023-03-07T10:31:24.308Z,101090.53
2023-03-07T10:33:55.996Z,101091.59
2023-03-07T10:36:38.714Z,101107.88
2023-03-07T10:39:47.753Z,101086.63
2023-03-07T10:42:19.232Z,101093.31
2023-03-07T10:44:50.411Z,101096.47
2023-03-07T10:47:25.335Z,101098.78
2023-03-07T10:50:28.266Z,101098.19
2023-03-07T10:53:00.207Z,101111.72
2023-03-07T10:55:36.458Z,101114.19
2023-03-07T10:58:17.292Z,101110.94
2023-03-07T11:00:48.612Z,101109.78
2023-03-07T11:03:51.052Z,101118.72
2023-03-07T11:06:28.240Z,101115.94
2023-03-07T11:08:58.679Z,101116.94
2023-03-07T11:11:33.751Z,101113.16
2023-03-07T11:14:14.587Z,101118.13
2023-03-07T11:16:46.016Z,101125.81
2023-03-07T11:19:31.529Z,101139.19
2023-03-07T11:22:05.094Z,101138.34
2023-03-07T11:24:49.028Z,101145.44
2023-03-07T11:27:27.317Z,101143.78
2023-03-07T11:30:08.822Z,101149.22
2023-03-07T11:32:42.009Z,101143.78
2023-03-07T11:35:22.465Z,101152.13
2023-03-07T11:38:02.893Z,101154.25
2023-03-07T11:40:44.008Z,101153.41
2023-03-07T11:43:25.966Z,101160.97
2023-03-07T11:46:05.623Z,101151.97
2023-03-07T11:48:47.134Z,101162.25
2023-03-07T11:51:59.055Z,101163.06
2023-03-07T11:54:35.730Z,101164.34
2023-03-07T11:57:29.500Z,101161.84
2023-03-07T12:00:02.788Z,101166.66
2023-03-07T12:02:54.490Z,101166.06
2023-03-07T12:05:42.941Z,101170.88
2023-03-07T12:08:27.902Z,101169.22
2023-03-07T12:11:04.093Z,101175.69
2023-03-07T12:13:41.695Z,101188.66
2023-03-07T12:16:28.442Z,101183.44
2023-03-07T12:19:01.852Z,101192.84
2023-03-07T12:21:41.492Z,101183.06
2023-03-07T12:24:21.889Z,101195.97
2023-03-07T12:27:01.491Z,101189.91
2023-03-07T12:29:48.172Z,101194.75
2023-03-07T12:32:21.787Z,101208.31
2023-03-07T12:35:07.658Z,101211.25
2023-03-07T12:37:50.923Z,101211.69
2023-03-07T12:40:22.861Z,101217.34
2023-03-07T12:42:57.943Z,101223.78
2023-03-07T12:45:37.762Z,101227.56
2023-03-07T12:48:26.113Z,101229.66
2023-03-07T12:51:01.824Z,101231.75
2023-03-07T12:53:42.131Z,101225.72
2023-03-07T12:56:24.230Z,101236.78
2023-03-07T12:58:57.653Z,101232.41
2023-03-07T13:01:29.985Z,101238.03
2023-03-07T13:04:06.235Z,101244.53
2023-03-07T13:06:39.774Z,101250.78
2023-03-07T13:09:16.499Z,101242.25
2023-03-07T13:12:04.755Z,101240.56
2023-03-07T13:14:42.664Z,101248.13
2023-03-07T13:17:13.775Z,101255.63
2023-03-07T13:19:45.313Z,101258.53
2023-03-07T13:22:18.560Z,101264.41
2023-03-07T13:24:49.387Z,101257.78
2023-03-07T13:27:19.657Z,101275.53
2023-03-07T13:30:08.141Z,101268.69
2023-03-07T13:32:53.616Z,101276.00
2023-03-07T13:35:32.418Z,101276.22
2023-03-07T13:38:06.720Z,101281.00
2023-03-07T13:40:36.833Z,101284.16
2023-03-07T13:43:22.110Z,101292.47
2023-03-07T13:45:54.282Z,101292.06
2023-03-07T13:48:30.352Z,101298.97
2023-03-07T13:51:10.813Z,101300.41
2023-03-07T13:53:52.300Z,101299.78
2023-03-07T13:56:26.536Z,101303.75
2023-03-07T13:59:05.614Z,101308.56
2023-03-07T14:01:40.664Z,101309.59
2023-03-07T14:04:38.827Z,101314.59
2023-03-07T14:07:29.540Z,101318.97
2023-03-07T14:10:22.321Z,101326.28
2023-03-07T14:13:02.039Z,101326.28
2023-03-07T14:15:50.712Z,101329.19
2023-03-07T14:18:26.257Z,101316.22
2023-03-07T14:20:59.738Z,101326.22
2023-03-07T14:23:52.538Z,101322.06
2023-03-07T14:26:26.612Z,101325.59
2023-03-07T14:29:01.217Z,101321.22
2023-03-07T14:31:33.610Z,101325.00
2023-03-07T14:34:07.288Z,101327.50
2023-03-07T14:36:39.706Z,101319.13
2023-03-07T14:39:14.532Z,101283.06
2023-03-07T14:41:50.575Z,101325.34
2023-03-07T14:44:39.330Z,101321.53
2023-03-07T14:47:21.536Z,101317.78
2023-03-07T14:50:06.851Z,101325.63
2023-03-07T14:52:38.109Z,101319.97
2023-03-07T14:55:22.105Z,101323.84
2023-03-07T14:57:54.528Z,101323.38
2023-03-07T15:00:31.909Z,101325.00
2023-03-07T15:03:09.909Z,101332.84
2023-03-07T15:05:51.498Z,101329.28
2023-03-07T15:08:24.786Z,101322.38
2023-03-07T15:11:08.114Z,101329.38
2023-03-07T15:13:42.969Z,101334.75
2023-03-07T15:16:17.654Z,101333.84
2023-03-07T15:18:52.092Z,101338.38
2023-03-07T15:21:23.869Z,101329.56
2023-03-07T15:23:58.646Z,101332.84
2023-03-07T15:26:29.765Z,101331.94
2023-03-07T15:29:02.075Z,101332.72
2023-03-07T15:31:36.267Z,101330.69
2023-03-07T15:34:22.384Z,101338.81
2023-03-07T15:36:52.640Z,101327.44
2023-03-07T15:39:35.827Z,101336.19
2023-03-07T15:42:10.281Z,101334.50
2023-03-07T15:44:40.471Z,101336.19
2023-03-07T15:47:16.057Z,101337.84
2023-03-07T15:49:52.185Z,101341.97
2023-03-07T15:52:35.858Z,101336.78
2023-03-07T15:55:09.519Z,101334.91
2023-03-07T15:57:42.271Z,101335.69
2023-03-07T16:00:25.342Z,101335.69
2023-03-07T16:03:17.491Z,101330.28
2023-03-07T16:05:50.088Z,101335.66
2023-03-07T16:08:26.147Z,101333.13
2023-03-07T16:10:56.529Z,101338.91
2023-03-07T16:13:30.144Z,101334.28
2023-03-07T16:16:29.679Z,101334.69
2023-03-07T16:19:00.152Z,101335.03
2023-03-07T16:21:30.462Z,101337.94
2023-03-07T16:24:00.769Z,101341.84
2023-03-07T16:26:32.742Z,101346.81
2023-03-07T16:29:03.484Z,101347.31
2023-03-07T16:31:33.740Z,101345.41
2023-03-07T16:34:04.130Z,101344.13
2023-03-07T16:36:34.830Z,101342.81
2023-03-07T16:39:05.222Z,101344.84
2023-03-07T16:41:35.635Z,101345.44
2023-03-07T16:44:06.174Z,101335.22
2023-03-07T16:46:36.949Z,101340.16
2023-03-07T16:49:07.179Z,101339.31
2023-03-07T16:51:37.343Z,101343.75
2023-03-07T16:54:07.620Z,101339.56
2023-03-07T16:56:43.062Z,101329.16
2023-03-07T16:59:18.716Z,101330.38
2023-03-07T17:01:50.522Z,101338.66
2023-03-07T17:04:20.962Z,101332.41
2023-03-07T17:07:03.875Z,101328.72
2023-03-07T17:09:35.057Z,101330.75
2023-03-07T17:12:05.389Z,101324.72
2023-03-07T17:14:36.820Z,101323.69
2023-03-07T17:17:08.076Z,101318.69
2023-03-07T17:19:38.384Z,101317.00
2023-03-07T17:22:08.917Z,101306.22
2023-03-07T17:24:40.036Z,101303.91
2023-03-07T17:27:10.658Z,101305.22
2023-03-07T17:29:45.299Z,101300.00
2023-03-07T17:32:15.985Z,101297.50
2023-03-07T17:34:46.866Z,101294.81
2023-03-07T17:37:17.599Z,101290.44
2023-03-07T17:39:48.043Z,101285.41
2023-03-07T17:42:18.392Z,101291.19
2023-03-07T17:44:48.786Z,101291.84
2023-03-07T17:47:19.664Z,101284.75
2023-03-07T17:49:51.774Z,101283.75
2023-03-07T17:52:22.374Z,101273.38
2023-03-07T17:54:53.167Z,101277.88
2023-03-07T17:57:24.119Z,101275.19
2023-03-07T17:59:55.207Z,101273.72
2023-03-07T18:02:26.334Z,101268.69
2023-03-07T18:04:56.851Z,101272.06
2023-03-07T18:07:27.308Z,101266.38
2023-03-07T18:10:07.995Z,101261.81
2023-03-07T18:12:40.691Z,101260.38
2023-03-07T18:15:15.465Z,101255.34
2023-03-07T18:17:48.755Z,101256.38
2023-03-07T18:20:21.857Z,101258.69
2023-03-07T18:22:52.956Z,101252.84
2023-03-07T18:25:25.426Z,101247.63
2023-03-07T18:27:56.128Z,101237.88
2023-03-07T18:30:27.154Z,101236.22
2023-03-07T18:32:57.857Z,101221.66
2023-03-07T18:35:28.631Z,101219.78
2023-03-07T18:38:00.391Z,101219.97
2023-03-07T18:40:31.563Z,101213.28
2023-03-07T18:43:02.079Z,101215.31
2023-03-07T18:45:33.360Z,101200.34
2023-03-07T18:48:03.579Z,101214.47
2023-03-07T18:50:33.874Z,101199.31
2023-03-07T18:53:05.326Z,101189.56
2023-03-07T18:55:39.053Z,101198.69
2023-03-07T18:58:09.926Z,101191.63
2023-03-07T19:00:40.206Z,101187.25
2023-03-07T19:03:10.569Z,101184.56
2023-03-07T19:05:48.179Z,101182.06
2023-03-07T19:08:19.131Z,101180.22
2023-03-07T19:10:49.407Z,101181.22
2023-03-07T19:13:19.823Z,101172.53
2023-03-07T19:15:50.514Z,101169.16
2023-03-07T19:18:20.813Z,101160.44
2023-03-07T19:20:51.241Z,101163.97
2023-03-07T19:23:22.843Z,101170.16
2023-03-07T19:25:53.799Z,101166.19
2023-03-07T19:28:24.091Z,101173.63
2023-03-07T19:30:54.426Z,101161.19
2023-03-07T19:33:25.716Z,101168.63
2023-03-07T19:36:03.959Z,101165.25
2023-03-07T19:38:34.294Z,101174.00
2023-03-07T19:41:05.896Z,101173.91
2023-03-07T19:43:36.560Z,101166.00
2023-03-07T19:46:07.918Z,101169.09
2023-03-07T19:48:40.704Z,101170.75
2023-03-07T19:51:18.085Z,101171.78
2023-03-07T19:53:49.024Z,101167.59
2023-03-07T19:56:21.492Z,101172.16
2023-03-07T19:58:52.015Z,101166.31
2023-03-07T20:01:23.686Z,101159.72
2023-03-07T20:03:55.206Z,101168.16
2023-03-07T20:06:31.202Z,101168.34
2023-03-07T20:09:02.996Z,101169.16
2023-03-07T20:11:37.243Z,101171.19
2023-03-07T20:14:08.709Z,101171.19
2023-03-07T20:16:39.856Z,101175.38
2023-03-07T20:19:11.323Z,101167.50
2023-03-07T20:21:43.848Z,101171.19
2023-03-07T20:24:14.417Z,101089.31
2023-03-07T20:26:45.260Z,101173.28
2023-03-07T20:29:16.416Z,101169.91
2023-03-07T20:31:46.803Z,101173.28
2023-03-07T20:34:17.554Z,101171.78
2023-03-07T20:36:48.729Z,101171.13
2023-03-07T20:39:20.053Z,101173.97
2023-03-07T20:41:51.544Z,101169.63
2023-03-07T20:44:22.200Z,101180.41
2023-03-07T20:46:52.742Z,101176.88
2023-03-07T20:49:23.159Z,101175.56
2023-03-07T20:51:54.046Z,101181.81
2023-03-07T20:54:25.562Z,101186.81
2023-03-07T20:56:56.232Z,101183.16
2023-03-07T20:59:26.783Z,101182.47
2023-03-07T21:01:57.267Z,101175.88
2023-03-07T21:04:27.901Z,101180.88
2023-03-07T21:06:58.481Z,101172.72
2023-03-07T21:09:32.193Z,101175.31
2023-03-07T21:12:02.652Z,101172.53
2023-03-07T21:14:33.158Z,101182.53
2023-03-07T21:17:05.203Z,101180.97
2023-03-07T21:19:35.548Z,101186.63
2023-03-07T21:22:06.052Z,101199.25
2023-03-07T21:24:36.524Z,101189.69
2023-03-07T21:27:06.941Z,101199.00
2023-03-07T21:29:37.304Z,101194.13
2023-03-07T21:32:07.473Z,101195.34
2023-03-07T21:34:37.685Z,101201.94
2023-03-07T21:37:07.922Z,101193.84
2023-03-07T21:39:38.338Z,101197.00
2023-03-07T21:42:08.874Z,101199.97
2023-03-07T21:44:39.453Z,101199.25
2023-03-07T21:47:09.814Z,101197.88
2023-03-07T21:49:40.393Z,101206.22
2023-03-07T21:52:11.180Z,101212.59
2023-03-07T21:54:41.631Z,101213.00
2023-03-07T21:57:11.970Z,101206.69
2023-03-07T21:59:43.020Z,101224.91
2023-03-07T22:02:13.774Z,101230.63
2023-03-07T22:04:44.144Z,101162.50
2023-03-07T22:07:15.814Z,101241.13
2023-03-07T22:09:46.070Z,101239.25
2023-03-07T22:12:54.871Z,101252.16
2023-03-07T22:15:27.990Z,101248.31
2023-03-07T22:17:58.233Z,101254.97
2023-03-07T22:20:28.608Z,101261.47
2023-03-07T22:22:59.164Z,101265.66
2023-03-07T22:25:29.468Z,101272.25
2023-03-07T22:27:59.704Z,101267.59
2023-03-07T22:30:30.023Z,101272.53
2023-03-07T22:33:00.783Z,101280.09
2023-03-07T22:35:30.968Z,101283.16
2023-03-07T22:38:01.151Z,101297.66
2023-03-07T22:40:31.432Z,101301.03
2023-03-07T22:43:01.822Z,101295.94
2023-03-07T22:45:32.224Z,101289.16
2023-03-07T22:48:02.364Z,101288.78
2023-03-07T22:50:32.518Z,101296.50
2023-03-07T22:53:02.696Z,101299.84
2023-03-07T22:55:33.020Z,101294.81
2023-03-07T22:58:03.536Z,101294.53
2023-03-07T23:00:33.734Z,101298.66
2023-03-07T23:03:03.996Z,101301.38
2023-03-07T23:05:34.983Z,101309.09
2023-03-07T23:08:05.877Z,101305.69
2023-03-07T23:10:36.079Z,101316.75
2023-03-07T23:13:06.429Z,101234.72
2023-03-07T23:15:36.641Z,101310.25
2023-03-07T23:18:06.927Z,101314.50
2023-03-07T23:20:38.761Z,101319.78
2023-03-07T23:23:37.997Z,101328.16
2023-03-07T23:26:08.302Z,101328.59
2023-03-07T23:28:38.522Z,101334.09
2023-03-07T23:31:16.708Z,101336.03
2023-03-07T23:33:47.220Z,101339.00
2023-03-07T23:36:18.712Z,101335.09
2023-03-07T23:38:49.132Z,101339.78
2023-03-07T23:41:19.504Z,101342.09
2023-03-07T23:43:54.539Z,101342.38
2023-03-07T23:46:25.557Z,101347.38
2023-03-07T23:48:56.238Z,101353.41
2023-03-07T23:51:27.024Z,101345.13
2023-03-07T23:53:57.269Z,101350.13
2023-03-07T23:56:27.829Z,101349.78
2023-03-07T23:58:57.969Z,101368.66
